Time;durP1;ratioP1;P1;durP2;ratioP2;P2;SDS_P1;SDS_P2;PMS_P1;PMS_P2;Temp;Humidity;BMP_temperature;BMP_pressure;BME280_temperature;BME280_humidity;BME280_pressure;Samples;Min_cycle;Max_cycle;Signal;HPM_P1;HPM_P2
2022/10/15 00:00:29;;;;;;;7.53;3.97;;;;;;;14.45;94.33;100607.78;6088122;28;20228;-71
2022/10/15 00:03:51;;;;;;;3.90;3.60;;;;;;;14.35;95.19;100599.81;6105269;28;20334;-71
2022/10/15 00:07:12;;;;;;;4.60;3.63;;;;;;;14.31;95.21;100599.28;6089534;28;20255;-70
2022/10/15 00:10:33;;;;;;;5.10;3.80;;;;;;;14.29;95.53;100593.19;6102671;28;20239;-71
2022/10/15 00:13:55;;;;;;;5.77;4.53;;;;;;;14.31;95.77;100593.84;6083341;28;20236;-71
2022/10/15 00:17:16;;;;;;;9.03;3.83;;;;;;;14.29;96.13;100590.47;6102595;28;20235;-70
2022/10/15 00:20:41;;;;;;;5.03;4.13;;;;;;;14.27;96.73;100594.31;6094741;28;20319;-71
2022/10/15 00:24:02;;;;;;;7.47;4.93;;;;;;;14.20;96.77;100596.03;6089829;29;20259;-71
2022/10/15 00:27:23;;;;;;;6.00;4.70;;;;;;;14.19;97.12;100595.16;6098462;28;20621;-72
2022/10/15 00:30:43;;;;;;;5.67;3.80;;;;;;;14.22;97.36;100592.13;6113134;28;20334;-71
2022/10/15 00:34:04;;;;;;;6.33;3.57;;;;;;;14.20;97.40;100583.31;6106810;28;20251;-71
2022/10/15 00:37:26;;;;;;;4.83;3.83;;;;;;;14.26;97.28;100593.50;6104996;28;20243;-71
2022/10/15 00:40:47;;;;;;;8.13;4.43;;;;;;;14.23;97.79;100582.97;6104783;28;20240;-71
2022/10/15 00:44:47;;;;;;;4.70;4.27;;;;;;;14.24;97.72;100589.25;6110181;28;20220;-72
2022/10/15 00:48:09;;;;;;;6.33;4.87;;;;;;;14.20;98.51;100594.16;6107347;28;20243;-71
2022/10/15 00:51:35;;;;;;;5.20;3.90;;;;;;;14.22;98.52;100594.00;6106427;28;20363;-72
2022/10/15 00:55:03;;;;;;;9.87;4.87;;;;;;;14.23;98.85;100588.41;6107999;28;20523;-72
2022/10/15 00:58:29;;;;;;;6.87;4.80;;;;;;;14.26;98.62;100587.22;6091380;28;20236;-72
2022/10/15 01:01:50;;;;;;;4.43;3.97;;;;;;;14.32;98.47;100590.16;6113468;28;20661;-72
2022/10/15 01:05:13;;;;;;;5.20;4.30;;;;;;;14.34;97.93;100585.41;6110513;28;20236;-72
2022/10/15 01:08:35;;;;;;;5.07;4.30;;;;;;;14.39;98.07;100579.47;6095177;28;20227;-71
2022/10/15 01:11:57;;;;;;;6.27;4.87;;;;;;;14.43;97.02;100574.56;6106510;28;20244;-71
2022/10/15 01:15:25;;;;;;;7.30;5.43;;;;;;;14.45;96.61;100576.09;6111297;28;20752;-71
2022/10/15 01:18:51;;;;;;;6.37;4.77;;;;;;;14.47;95.90;100579.47;6103915;28;20235;-72
2022/10/15 01:22:23;;;;;;;9.70;6.93;;;;;;;14.41;95.22;100570.13;6107025;28;20235;-73
2022/10/15 01:25:53;;;;;;;6.80;5.60;;;;;;;14.43;94.98;100573.53;6123008;28;20247;-71
2022/10/15 01:29:32;;;;;;;6.13;5.50;;;;;;;14.43;95.34;100577.28;6101174;28;20243;-70
2022/10/15 01:33:08;;;;;;;8.00;5.67;;;;;;;14.41;94.77;100577.44;6112707;28;20239;-70
2022/10/15 01:36:34;;;;;;;13.13;7.07;;;;;;;14.34;95.32;100571.00;6120919;28;20251;-72
2022/10/15 01:39:59;;;;;;;8.17;6.13;;;;;;;14.39;95.07;100576.78;6084215;28;20228;-71
2022/10/15 01:43:26;;;;;;;7.77;5.83;;;;;;;14.35;94.94;100578.94;6102628;28;20234;-71
2022/10/15 01:47:10;;;;;;;10.87;7.20;;;;;;;14.26;95.09;100571.81;6106009;28;20702;-71
2022/10/15 01:50:35;;;;;;;10.47;7.80;;;;;;;14.24;95.62;100568.41;6083162;28;20224;-71
2022/10/15 01:53:58;;;;;;;10.77;7.00;;;;;;;14.25;95.06;100569.25;6101024;28;20235;-71
2022/10/15 01:57:22;;;;;;;7.93;6.90;;;;;;;14.19;95.22;100576.19;6108992;28;20236;-71
2022/10/15 02:00:43;;;;;;;10.37;7.77;;;;;;;14.14;94.96;100578.53;6112306;28;20231;-71
2022/10/15 02:04:19;;;;;;;9.07;6.90;;;;;;;14.15;94.29;100579.41;6095401;28;20253;-70
2022/10/15 02:07:49;;;;;;;7.97;6.93;;;;;;;14.14;93.97;100578.53;6104017;28;20266;-71
2022/10/15 02:11:13;;;;;;;8.90;6.63;;;;;;;14.05;94.33;100578.69;6099402;28;20242;-71
2022/10/15 02:14:40;;;;;;;12.37;8.80;;;;;;;14.08;93.88;100571.06;6108335;28;20239;-71
2022/10/15 02:18:09;;;;;;;10.47;6.97;;;;;;;14.04;93.63;100580.56;6113545;28;20612;-70
2022/10/15 02:21:37;;;;;;;9.73;6.20;;;;;;;14.01;93.80;100571.91;6107245;28;20239;-71
2022/10/15 02:25:07;;;;;;;11.17;6.60;;;;;;;14.04;93.77;100569.72;6103909;28;20231;-72
2022/10/15 02:28:29;;;;;;;9.77;8.00;;;;;;;14.02;94.00;100560.91;6108303;28;20235;-71
2022/10/15 02:31:52;;;;;;;10.90;7.63;;;;;;;14.06;92.77;100562.25;6099091;28;20223;-70
2022/10/15 02:35:13;;;;;;;16.20;9.90;;;;;;;14.00;92.89;100549.38;6114914;28;20235;-71
2022/10/15 02:38:40;;;;;;;9.87;7.00;;;;;;;14.04;92.76;100552.63;6119194;28;20243;-70
2022/10/15 02:42:03;;;;;;;8.17;7.37;;;;;;;14.07;92.23;100557.69;6102692;28;20835;-71
2022/10/15 02:45:26;;;;;;;13.30;7.30;;;;;;;14.06;92.32;100562.25;6098106;28;20228;-71
2022/10/15 02:48:47;;;;;;;7.97;7.17;;;;;;;14.01;91.82;100558.34;6097514;28;20259;-70
2022/10/15 02:52:11;;;;;;;11.77;7.33;;;;;;;13.99;91.53;100561.25;6102370;29;20621;-71
2022/10/15 02:55:32;;;;;;;9.20;7.33;;;;;;;13.95;91.24;100557.19;6099485;28;20238;-71
2022/10/15 02:58:54;;;;;;;9.63;6.90;;;;;;;13.91;91.08;100549.53;6098644;28;20255;-72
2022/10/15 03:02:16;;;;;;;9.80;8.33;;;;;;;13.87;90.80;100553.59;6105595;28;20546;-72
2022/10/15 03:05:37;;;;;;;10.47;7.47;;;;;;;13.79;90.88;100554.41;6115269;28;20227;-71
2022/10/15 03:08:58;;;;;;;8.37;7.03;;;;;;;13.70;91.14;100562.69;6095402;28;20261;-71
2022/10/15 03:12:22;;;;;;;9.27;7.30;;;;;;;13.60;91.34;100558.22;6101931;28;20232;-71
2022/10/15 03:15:44;;;;;;;8.33;7.03;;;;;;;13.57;91.25;100555.00;6107557;28;20231;-71
2022/10/15 03:19:05;;;;;;;10.47;7.43;;;;;;;13.62;90.67;100566.22;6101072;28;20232;-71
2022/10/15 03:22:26;;;;;;;7.63;6.83;;;;;;;13.56;90.10;100573.09;6094434;28;20259;-71
2022/10/15 03:25:47;;;;;;;10.17;5.73;;;;;;;13.47;89.27;100570.53;6107839;28;20327;-72
2022/10/15 03:29:15;;;;;;;8.73;5.63;;;;;;;13.51;89.22;100567.34;6097922;28;20231;-71
2022/10/15 03:32:48;;;;;;;6.67;4.63;;;;;;;13.58;88.73;100568.38;6104828;28;20625;-72
2022/10/15 03:36:10;;;;;;;7.60;5.90;;;;;;;13.48;88.74;100566.81;6094289;28;20236;-71
2022/10/15 03:39:30;;;;;;;9.30;6.63;;;;;;;13.46;89.24;100572.38;6102331;28;20661;-71
2022/10/15 03:42:56;;;;;;;9.70;6.20;;;;;;;13.37;89.95;100575.22;6080884;28;20255;-71
2022/10/15 03:46:18;;;;;;;14.80;8.33;;;;;;;13.31;90.12;100579.41;6100208;28;20259;-72
2022/10/15 03:49:43;;;;;;;12.87;7.47;;;;;;;13.40;89.89;100573.03;6100556;28;20322;-71
2022/10/15 03:53:04;;;;;;;9.03;8.00;;;;;;;13.35;90.00;100572.66;6112449;28;20507;-71
2022/10/15 03:56:25;;;;;;;8.87;6.50;;;;;;;13.26;89.62;100573.66;6105279;28;20905;-71
2022/10/15 03:59:50;;;;;;;10.67;5.97;;;;;;;13.26;90.04;100570.94;6107014;28;20235;-71
2022/10/15 04:03:13;;;;;;;10.10;8.27;;;;;;;13.24;90.16;100564.84;6108862;28;20243;-71
2022/10/15 04:06:36;;;;;;;7.80;7.00;;;;;;;13.23;90.41;100571.25;6101573;28;20239;-72
2022/10/15 04:10:01;;;;;;;8.43;6.43;;;;;;;13.31;90.51;100570.44;6104297;29;20608;-71
2022/10/15 04:13:29;;;;;;;10.63;7.73;;;;;;;13.30;90.57;100563.34;6117888;28;20559;-71
2022/10/15 04:16:50;;;;;;;9.37;7.10;;;;;;;13.40;90.09;100573.03;6110664;28;20846;-72
2022/10/15 04:20:16;;;;;;;9.27;6.47;;;;;;;13.48;89.95;100575.78;6101828;28;20314;-72
2022/10/15 04:23:40;;;;;;;7.70;6.90;;;;;;;13.61;89.48;100573.47;6107771;28;20371;-71
2022/10/15 04:27:16;;;;;;;9.37;8.10;;;;;;;13.58;89.44;100573.78;6110266;28;20260;-72
2022/10/15 04:30:38;;;;;;;9.73;6.90;;;;;;;13.39;89.61;100584.03;6099666;28;20223;-72
2022/10/15 04:34:02;;;;;;;7.53;5.83;;;;;;;13.42;89.61;100578.28;6110838;28;20267;-72
2022/10/15 04:37:23;;;;;;;10.73;7.20;;;;;;;13.44;89.68;100577.13;6108896;28;21896;-71
2022/10/15 04:40:45;;;;;;;8.60;6.37;;;;;;;13.39;89.67;100581.34;6097900;28;20238;-71
2022/10/15 04:44:06;;;;;;;14.53;7.33;;;;;;;13.42;89.54;100581.00;6104716;28;20262;-70
2022/10/15 04:47:27;;;;;;;12.60;7.57;;;;;;;13.40;89.92;100588.44;6113750;28;20231;-71
2022/10/15 04:51:04;;;;;;;9.80;8.67;;;;;;;13.36;90.39;100590.63;6101770;28;20279;-71
2022/10/15 04:54:35;;;;;;;9.87;7.07;;;;;;;13.35;90.56;100594.31;6106622;28;20231;-70
2022/10/15 04:57:59;;;;;;;10.83;7.33;;;;;;;13.32;90.84;100600.06;6110018;28;20250;-71
2022/10/15 05:01:24;;;;;;;11.87;8.73;;;;;;;13.20;91.05;100600.50;6101769;28;20233;-71
2022/10/15 05:04:57;;;;;;;13.27;8.03;;;;;;;13.26;90.78;100600.72;6106089;28;20231;-70
2022/10/15 05:08:18;;;;;;;9.87;7.77;;;;;;;13.23;90.82;100600.16;6111633;28;20235;-71
2022/10/15 05:11:56;;;;;;;13.60;9.47;;;;;;;13.24;90.35;100600.03;6081399;28;20232;-71
2022/10/15 05:15:18;;;;;;;11.77;7.83;;;;;;;13.22;90.83;100603.91;6106902;28;20648;-71
2022/10/15 05:18:40;;;;;;;13.97;9.17;;;;;;;13.14;90.74;100607.38;6106065;28;20243;-71
2022/10/15 05:22:02;;;;;;;10.73;7.13;;;;;;;13.14;90.41;100614.69;6105218;28;20239;-71
2022/10/15 05:25:24;;;;;;;12.33;7.40;;;;;;;13.17;90.25;100617.06;6107109;28;20235;-71
2022/10/15 05:28:45;;;;;;;10.07;7.77;;;;;;;13.05;90.41;100616.47;6096541;28;20239;-71
2022/10/15 05:32:18;;;;;;;11.77;8.30;;;;;;;13.10;90.43;100626.84;6095168;28;20777;-71
2022/10/15 05:35:39;;;;;;;11.87;8.37;;;;;;;13.06;90.67;100617.34;6100301;29;20235;-71
2022/10/15 05:39:02;;;;;;;10.13;8.60;;;;;;;13.06;90.28;100620.03;6092341;28;20519;-71
2022/10/15 05:42:25;;;;;;;11.33;8.87;;;;;;;12.99;90.26;100622.50;6098924;28;20232;-71
2022/10/15 05:45:53;;;;;;;15.03;8.17;;;;;;;12.92;90.19;100624.13;6107139;28;20239;-71
2022/10/15 05:49:18;;;;;;;10.03;7.23;;;;;;;12.96;90.04;100630.06;6086011;28;20362;-71
2022/10/15 05:52:45;;;;;;;8.83;7.77;;;;;;;13.00;90.00;100628.72;6115823;28;20630;-71
2022/10/15 05:56:10;;;;;;;14.97;8.83;;;;;;;12.96;90.43;100624.66;6097615;28;20224;-71
2022/10/15 05:59:30;;;;;;;18.57;9.33;;;;;;;13.00;90.33;100636.84;6093799;28;20776;-70
2022/10/15 06:02:51;;;;;;;13.60;8.93;;;;;;;12.95;90.99;100636.50;6105652;28;20243;-70
2022/10/15 06:06:19;;;;;;;14.93;11.90;;;;;;;12.90;91.03;100636.97;6097972;28;20236;-70
2022/10/15 06:09:39;;;;;;;16.57;11.30;;;;;;;13.04;90.26;100649.09;6094312;28;20231;-70
2022/10/15 06:13:00;;;;;;;15.80;10.00;;;;;;;13.12;90.09;100646.47;6106942;28;20250;-70
2022/10/15 06:16:21;;;;;;;12.53;9.63;;;;;;;12.92;89.79;100640.34;6103088;28;20733;-70
2022/10/15 06:19:42;;;;;;;13.30;9.17;;;;;;;12.91;89.94;100644.09;6104616;28;20231;-71
2022/10/15 06:23:05;;;;;;;15.13;9.00;;;;;;;13.01;89.78;100647.53;6115408;28;20231;-70
2022/10/15 06:26:26;;;;;;;14.23;9.90;;;;;;;13.00;89.36;100645.81;6106783;28;20252;-70
2022/10/15 06:29:47;;;;;;;10.13;7.93;;;;;;;13.06;89.78;100658.75;6098672;28;20239;-72
2022/10/15 06:33:08;;;;;;;16.87;11.07;;;;;;;13.07;89.44;100659.63;6110307;28;20231;-71
2022/10/15 06:36:28;;;;;;;15.77;9.87;;;;;;;13.03;89.73;100667.19;6099810;28;20271;-71
2022/10/15 06:39:51;;;;;;;14.90;9.90;;;;;;;13.09;89.74;100660.31;6099347;28;20649;-71
2022/10/15 06:43:12;;;;;;;15.90;10.97;;;;;;;13.03;89.55;100660.91;6107104;28;20689;-71
2022/10/15 06:46:33;;;;;;;15.13;9.13;;;;;;;13.05;89.65;100658.94;6109586;28;20278;-71
2022/10/15 06:49:54;;;;;;;13.40;9.67;;;;;;;13.01;89.86;100663.78;6104123;28;20605;-71
2022/10/15 06:53:15;;;;;;;14.97;11.17;;;;;;;12.94;89.61;100659.13;6106750;28;20252;-71
2022/10/15 06:56:37;;;;;;;14.30;9.60;;;;;;;13.02;89.97;100665.47;6101940;28;20227;-71
2022/10/15 06:59:58;;;;;;;21.03;10.70;;;;;;;12.99;89.82;100663.09;6092141;28;20843;-71
2022/10/15 07:03:19;;;;;;;13.70;9.90;;;;;;;13.17;88.98;100668.47;6105397;28;20232;-71
2022/10/15 07:06:40;;;;;;;17.53;9.50;;;;;;;13.19;88.61;100675.44;6083918;28;20500;-71
2022/10/15 07:10:01;;;;;;;12.50;8.83;;;;;;;13.18;88.76;100667.50;6069126;28;20237;-71
2022/10/15 07:13:23;;;;;;;12.80;9.90;;;;;;;13.04;88.51;100670.75;6085450;28;20323;-71
2022/10/15 07:16:44;;;;;;;16.77;9.20;;;;;;;13.10;88.38;100664.72;6088786;29;20243;-69
2022/10/15 07:20:06;;;;;;;14.70;10.30;;;;;;;13.01;89.35;100671.03;6071071;28;20227;-70
2022/10/15 07:23:27;;;;;;;13.37;9.20;;;;;;;12.96;89.30;100671.50;6101893;28;20248;-70
2022/10/15 07:26:48;;;;;;;20.33;9.37;;;;;;;13.10;89.21;100678.25;6101340;28;20590;-70
2022/10/15 07:30:10;;;;;;;14.20;8.67;;;;;;;13.10;89.28;100679.09;6103995;28;20318;-70
2022/10/15 07:33:33;;;;;;;15.93;9.33;;;;;;;13.09;88.86;100677.41;6096779;28;20239;-71
2022/10/15 07:36:54;;;;;;;11.80;8.40;;;;;;;13.12;88.84;100677.06;6098827;28;20247;-71
2022/10/15 07:40:15;;;;;;;15.53;11.30;;;;;;;13.16;88.50;100677.63;6092833;28;20247;-71
2022/10/15 07:43:36;;;;;;;14.10;9.00;;;;;;;13.22;88.38;100685.97;6101057;28;20227;-71
2022/10/15 07:46:58;;;;;;;13.23;8.90;;;;;;;13.29;87.73;100697.00;6092392;28;20261;-71
2022/10/15 07:50:20;;;;;;;12.77;9.07;;;;;;;13.32;87.75;100689.44;6106086;28;20223;-71
2022/10/15 07:53:42;;;;;;;12.93;8.37;;;;;;;13.30;87.81;100691.44;6106159;28;20236;-71
2022/10/15 07:57:05;;;;;;;13.33;11.67;;;;;;;13.32;87.70;100685.88;6113707;28;20227;-71
2022/10/15 08:00:27;;;;;;;12.50;8.33;;;;;;;13.33;87.35;100680.28;6113058;28;20235;-71
2022/10/15 08:03:50;;;;;;;15.03;8.67;;;;;;;13.38;87.37;100688.78;6106166;28;20521;-71
2022/10/15 08:07:11;;;;;;;10.30;8.03;;;;;;;13.67;86.23;100682.19;6112491;28;20270;-71
2022/10/15 08:10:32;;;;;;;12.57;7.63;;;;;;;13.69;85.36;100683.72;6107259;28;20685;-71
2022/10/15 08:13:53;;;;;;;10.17;8.50;;;;;;;13.63;85.59;100682.53;6096607;28;20535;-71
2022/10/15 08:17:14;;;;;;;10.90;8.20;;;;;;;14.03;84.31;100676.44;6104634;28;20238;-71
2022/10/15 08:20:36;;;;;;;17.33;8.10;;;;;;;14.43;83.19;100674.91;6092851;28;21755;-71
2022/10/15 08:23:59;;;;;;;11.83;9.37;;;;;;;14.63;81.81;100673.59;6088385;28;20509;-72
2022/10/15 08:27:27;;;;;;;10.87;8.87;;;;;;;14.85;80.51;100683.81;6115909;28;20236;-71
2022/10/15 08:30:51;;;;;;;13.50;8.43;;;;;;;14.80;80.69;100686.16;6117600;28;20634;-72
2022/10/15 08:34:11;;;;;;;15.07;8.30;;;;;;;14.90;80.30;100689.56;6107996;28;20236;-72
2022/10/15 08:37:33;;;;;;;11.17;6.63;;;;;;;14.48;81.94;100700.53;6107836;28;20228;-72
2022/10/15 08:40:57;;;;;;;14.30;8.57;;;;;;;15.00;80.67;100685.69;6113323;28;20625;-71
2022/10/15 08:44:23;;;;;;;11.10;8.87;;;;;;;15.42;79.22;100682.75;6103350;28;20247;-71
2022/10/15 08:47:50;;;;;;;11.07;8.80;;;;;;;15.86;77.17;100684.06;6106892;28;21197;-72
2022/10/15 08:51:14;;;;;;;16.83;10.47;;;;;;;16.06;76.26;100686.38;6069513;28;20239;-71
2022/10/15 08:54:37;;;;;;;10.20;7.33;;;;;;;16.25;75.39;100681.34;6099845;28;20239;-73
2022/10/15 08:58:03;;;;;;;12.93;7.60;;;;;;;16.18;76.10;100690.41;6097420;28;20220;-71
2022/10/15 09:01:29;;;;;;;8.80;6.43;;;;;;;16.16;74.78;100687.00;6102790;28;20235;-71
2022/10/15 09:04:55;;;;;;;11.90;8.27;;;;;;;16.65;74.67;100691.19;6094881;28;20272;-69
2022/10/15 09:08:25;;;;;;;11.37;7.40;;;;;;;16.48;74.23;100689.59;6093742;28;20403;-70
2022/10/15 09:11:59;;;;;;;12.73;8.03;;;;;;;15.93;76.13;100695.94;6087485;28;20228;-70
2022/10/15 09:15:22;;;;;;;11.57;8.25;;;;;;;16.23;74.68;100698.88;6091478;28;20597;-70
2022/10/15 09:18:47;;;;;;;12.30;9.38;;;;;;;16.73;72.90;100699.28;6099983;28;20236;-71
2022/10/15 09:22:12;;;;;;;10.38;8.23;;;;;;;18.07;69.46;100692.97;6100919;28;20231;-71
2022/10/15 09:25:36;;;;;;;8.88;5.70;;;;;;;18.37;67.50;100691.91;6084245;28;20231;-71
2022/10/15 09:29:06;;;;;;;11.73;7.55;;;;;;;19.71;61.87;100690.97;6082630;28;20240;-70
2022/10/15 09:32:34;;;;;;;11.05;7.35;;;;;;;20.08;59.81;100692.50;6119192;28;20230;-70
2022/10/15 09:36:03;;;;;;;12.13;7.30;;;;;;;21.60;56.47;100689.97;6107113;28;20231;-69
2022/10/15 09:39:44;;;;;;;8.63;6.82;;;;;;;23.28;49.35;100691.44;6085087;28;20254;-70
2022/10/15 09:43:06;;;;;;;10.35;7.03;;;;;;;25.15;46.29;100684.28;6095810;28;20236;-71
2022/10/15 09:46:29;;;;;;;7.63;6.35;;;;;;;23.54;48.21;100685.75;6109091;28;20271;-71
2022/10/15 09:49:49;;;;;;;10.73;6.90;;;;;;;20.11;57.97;100683.84;6092028;28;20226;-70
2022/10/15 09:53:19;;;;;;;8.35;6.38;;;;;;;19.70;60.81;100692.03;6099098;28;20726;-70
2022/10/15 09:56:46;;;;;;;12.10;6.45;;;;;;;22.84;53.00;100683.28;6092060;28;20235;-70
2022/10/15 10:00:10;;;;;;;6.68;4.80;;;;;;;24.43;47.70;100685.25;6085303;28;20231;-71
2022/10/15 10:03:36;;;;;;;8.70;6.45;;;;;;;24.42;47.57;100683.59;6102520;28;20232;-69
2022/10/15 10:07:00;;;;;;;9.75;6.03;;;;;;;27.56;40.28;100686.03;6094417;28;20236;-74
2022/10/15 10:10:25;;;;;;;8.05;5.18;;;;;;;23.42;47.50;100683.97;6091741;28;20335;-73
2022/10/15 10:13:51;;;;;;;9.73;5.78;;;;;;;24.60;45.34;100680.78;6080341;28;20264;-73
2022/10/15 10:17:16;;;;;;;8.02;5.68;;;;;;;22.26;50.83;100683.31;6103039;28;20669;-72
2022/10/15 10:20:53;;;;;;;8.98;6.65;;;;;;;26.34;41.54;100668.16;6095567;28;20519;-73
2022/10/15 10:24:29;;;;;;;7.55;5.82;;;;;;;29.39;36.19;100665.97;6087371;28;20288;-72
2022/10/15 10:27:50;;;;;;;5.20;4.70;;;;;;;30.47;33.13;100651.44;6074843;29;20241;-72
2022/10/15 10:31:12;;;;;;;8.48;6.03;;;;;;;29.13;34.44;100657.38;6098901;28;20234;-72
2022/10/15 10:34:33;;;;;;;8.35;5.20;;;;;;;29.98;33.34;100654.50;6098812;28;20239;-72
2022/10/15 10:37:55;;;;;;;10.98;5.68;;;;;;;26.51;39.61;100663.56;6107268;28;20223;-72
2022/10/15 10:41:16;;;;;;;7.20;4.18;;;;;;;29.19;36.13;100655.50;6092741;28;20263;-72
2022/10/15 10:44:39;;;;;;;5.47;4.47;;;;;;;27.19;39.82;100669.03;6066980;28;20465;-72
2022/10/15 10:48:18;;;;;;;4.97;4.45;;;;;;;27.66;38.58;100658.50;6100702;28;20237;-73
2022/10/15 10:51:48;;;;;;;4.97;4.47;;;;;;;29.54;34.85;100658.59;6092226;28;20536;-72
2022/10/15 10:55:17;;;;;;;5.45;4.28;;;;;;;25.15;42.64;100657.53;6096343;28;20231;-71
2022/10/15 10:58:38;;;;;;;8.43;6.10;;;;;;;21.07;53.50;100667.16;6069535;29;20232;-72
2022/10/15 11:01:59;;;;;;;11.57;5.80;;;;;;;19.45;58.77;100663.44;6079899;28;20236;-73
2022/10/15 11:05:26;;;;;;;8.25;4.57;;;;;;;20.85;56.32;100656.56;6088097;28;20227;-74
2022/10/15 11:08:59;;;;;;;5.65;4.60;;;;;;;21.17;55.50;100653.06;6099822;28;20267;-74
2022/10/15 11:12:35;;;;;;;6.38;4.13;;;;;;;20.62;55.55;100655.03;6097847;28;20236;-74
2022/10/15 11:16:00;;;;;;;4.25;3.33;;;;;;;21.29;54.43;100651.38;6073778;28;20272;-73
2022/10/15 11:19:28;;;;;;;5.03;3.80;;;;;;;20.26;57.68;100654.47;6080304;28;20286;-74
2022/10/15 11:23:00;;;;;;;3.63;3.33;;;;;;;21.74;51.97;100652.38;6111027;28;20239;-74
2022/10/15 11:26:35;;;;;;;4.85;3.22;;;;;;;21.82;52.63;100655.75;6090370;28;20236;-74
2022/10/15 11:30:03;;;;;;;3.53;2.63;;;;;;;22.58;50.20;100647.66;6080899;28;20242;-74
2022/10/15 11:33:40;;;;;;;4.20;3.40;;;;;;;25.18;42.64;100640.50;6106407;28;20500;-70
2022/10/15 11:37:18;;;;;;;5.47;3.45;;;;;;;26.75;39.25;100639.41;6096107;28;20232;-69
2022/10/15 11:40:50;;;;;;;3.60;2.63;;;;;;;28.98;35.21;100620.28;6090451;28;20861;-73
2022/10/15 11:44:27;;;;;;;3.80;2.00;;;;;;;27.39;36.91;100627.84;6094678;28;20453;-70
2022/10/15 11:47:54;;;;;;;2.85;2.55;;;;;;;29.48;32.90;100628.25;6115999;28;20239;-70
2022/10/15 11:51:26;;;;;;;2.45;1.67;;;;;;;25.92;40.35;100631.56;6091372;28;20246;-71
2022/10/15 11:54:55;;;;;;;5.35;1.92;;;;;;;23.95;43.59;100632.81;6057284;29;20236;-70
2022/10/15 11:58:24;;;;;;;1.92;1.73;;;;;;;22.56;46.96;100636.91;6104749;28;20342;-70
2022/10/15 12:01:49;;;;;;;3.38;2.25;;;;;;;24.96;41.35;100631.09;6081246;28;20321;-71
2022/10/15 12:05:18;;;;;;;3.45;2.08;;;;;;;25.01;41.53;100622.94;6088838;28;20319;-71
2022/10/15 12:08:41;;;;;;;2.65;2.05;;;;;;;24.52;41.69;100624.06;6101969;28;20760;-71
2022/10/15 12:12:06;;;;;;;2.30;1.60;;;;;;;26.17;37.63;100611.94;6112940;28;20235;-70
2022/10/15 12:15:34;;;;;;;3.42;1.15;;;;;;;20.90;49.65;100618.41;6119445;28;20235;-68
2022/10/15 12:19:02;;;;;;;2.05;1.30;;;;;;;19.61;54.35;100613.09;6104339;28;20236;-70
2022/10/15 12:22:38;;;;;;;2.88;1.90;;;;;;;20.41;53.42;100596.81;6119977;28;20251;-68
2022/10/15 12:25:59;;;;;;;2.75;1.65;;;;;;;20.36;53.76;100591.13;6127988;28;20591;-71
2022/10/15 12:29:22;;;;;;;3.90;2.05;;;;;;;19.50;55.83;100584.41;6115603;28;20231;-69
2022/10/15 12:32:46;;;;;;;2.83;1.05;;;;;;;19.47;56.00;100587.53;6120707;28;20268;-70
2022/10/15 12:36:26;;;;;;;2.60;1.95;;;;;;;20.27;54.94;100575.94;6127052;28;20223;-70
2022/10/15 12:39:55;;;;;;;1.75;1.63;;;;;;;21.54;50.45;100569.25;6109292;28;20331;-70
2022/10/15 12:43:20;;;;;;;1.35;1.25;;;;;;;21.42;49.37;100566.34;6117027;28;20246;-70
2022/10/15 12:46:42;;;;;;;2.08;1.45;;;;;;;20.09;51.75;100570.16;6108034;28;20614;-69
2022/10/15 12:50:05;;;;;;;2.30;1.52;;;;;;;20.37;51.19;100566.28;6104558;28;20246;-71
2022/10/15 12:53:33;;;;;;;4.05;2.80;;;;;;;20.08;52.96;100560.25;6108448;28;20237;-71
2022/10/15 12:56:55;;;;;;;4.13;2.08;;;;;;;19.50;54.16;100580.81;6094002;29;20239;-70
2022/10/15 13:00:50;;;;;;;1.77;1.67;;;;;;;19.41;54.54;100582.00;6111606;28;20232;-70
2022/10/15 13:04:11;;;;;;;4.60;2.50;;;;;;;18.68;56.73;100593.34;6108738;28;20239;-69
2022/10/15 13:07:34;;;;;;;14.20;2.35;;;;;;;18.83;56.96;100589.53;6123312;28;20587;-69
2022/10/15 13:10:58;;;;;;;2.95;2.65;;;;;;;19.05;56.18;100587.59;6125195;28;20232;-69
2022/10/15 13:14:28;;;;;;;3.35;2.10;;;;;;;17.99;59.36;100594.88;6108493;28;20495;-69
2022/10/15 13:17:53;;;;;;;1.77;1.67;;;;;;;18.78;57.59;100582.94;6134945;28;20601;-68
2022/10/15 13:21:14;;;;;;;1.63;1.50;;;;;;;18.50;58.74;100587.50;6117312;28;20231;-68
2022/10/15 13:24:44;;;;;;;1.88;1.67;;;;;;;18.23;59.16;100598.09;6081891;28;20224;-68
2022/10/15 13:28:30;;;;;;;2.78;1.95;;;;;;;18.02;60.29;100580.84;6117492;28;20240;-69
2022/10/15 13:31:55;;;;;;;3.75;2.33;;;;;;;18.03;60.37;100579.81;6093195;28;20244;-70
2022/10/15 13:35:20;;;;;;;5.63;2.85;;;;;;;17.97;60.37;100584.16;6081527;29;20266;-69
2022/10/15 13:38:41;;;;;;;4.15;2.83;;;;;;;17.87;60.79;100580.03;6100349;28;20243;-68
2022/10/15 13:42:13;;;;;;;4.15;3.13;;;;;;;18.02;60.85;100569.94;6108932;28;20255;-69
2022/10/15 13:45:36;;;;;;;3.47;3.17;;;;;;;18.02;60.88;100569.94;6105043;28;20240;-69
2022/10/15 13:49:00;;;;;;;3.55;3.25;;;;;;;18.29;60.67;100570.03;6104191;28;20235;-69
2022/10/15 13:52:20;;;;;;;4.75;3.20;;;;;;;18.21;60.62;100550.22;6115912;28;20240;-68
2022/10/15 13:55:46;;;;;;;4.45;3.97;;;;;;;18.63;59.41;100543.97;6109520;28;20232;-69
2022/10/15 13:59:16;;;;;;;3.90;3.53;;;;;;;18.90;59.02;100533.03;6104414;28;20231;-69
2022/10/15 14:02:37;;;;;;;4.38;3.53;;;;;;;19.56;56.85;100523.44;6120327;28;20637;-69
2022/10/15 14:06:15;;;;;;;4.10;3.70;;;;;;;19.24;58.07;100531.38;6118019;28;20231;-69
2022/10/15 14:09:39;;;;;;;5.80;4.32;;;;;;;20.05;55.70;100536.03;6115397;28;20232;-71
2022/10/15 14:13:00;;;;;;;5.15;4.75;;;;;;;21.09;53.00;100535.38;6118874;28;20232;-69
2022/10/15 14:16:27;;;;;;;7.88;3.80;;;;;;;20.01;55.72;100530.13;6104459;28;20239;-69
2022/10/15 14:19:51;;;;;;;3.92;3.53;;;;;;;21.40;52.41;100516.34;6107522;28;20235;-69
2022/10/15 14:23:22;;;;;;;5.90;4.70;;;;;;;20.98;53.22;100520.38;6115481;28;20680;-69
2022/10/15 14:26:44;;;;;;;5.10;4.40;;;;;;;19.12;58.86;100521.03;6089579;28;20639;-69
2022/10/15 14:30:14;;;;;;;7.75;5.32;;;;;;;18.47;61.57;100515.03;6103381;28;20231;-69
2022/10/15 14:33:44;;;;;;;7.47;5.00;;;;;;;18.00;63.32;100517.47;6112374;28;20232;-70
2022/10/15 14:37:39;;;;;;;9.38;5.07;;;;;;;18.11;63.14;100512.31;6118586;28;20240;-68
2022/10/15 14:41:06;;;;;;;5.40;4.90;;;;;;;18.21;63.58;100512.84;6106187;28;20242;-69
2022/10/15 14:44:41;;;;;;;5.45;3.95;;;;;;;18.65;62.34;100512.66;6115405;28;20231;-70
2022/10/15 14:48:09;;;;;;;5.78;4.57;;;;;;;18.77;63.46;100511.09;6098862;28;20603;-69
2022/10/15 14:51:30;;;;;;;5.57;4.15;;;;;;;18.54;63.24;100505.03;6106896;28;20254;-69
2022/10/15 14:55:05;;;;;;;6.90;5.00;;;;;;;18.44;63.37;100512.69;6129658;28;20230;-69
2022/10/15 14:58:29;;;;;;;8.73;5.88;;;;;;;18.13;64.50;100518.44;6112040;28;20516;-70
2022/10/15 15:01:53;;;;;;;5.70;5.05;;;;;;;18.08;64.59;100507.28;6083545;28;21436;-70
2022/10/15 15:05:21;;;;;;;9.18;6.10;;;;;;;17.79;65.73;100518.25;6088601;28;20235;-69
2022/10/15 15:08:42;;;;;;;10.85;5.68;;;;;;;17.73;66.10;100513.56;6105683;28;20239;-69
2022/10/15 15:12:03;;;;;;;7.18;5.18;;;;;;;17.88;65.88;100508.91;6092277;28;21118;-68
2022/10/15 15:15:26;;;;;;;6.18;4.60;;;;;;;17.86;66.14;100513.72;6099316;28;20235;-69
2022/10/15 15:18:47;;;;;;;5.93;5.07;;;;;;;17.65;67.20;100513.66;6105189;28;20290;-67
2022/10/15 15:22:10;;;;;;;6.40;5.25;;;;;;;17.42;67.96;100502.84;6102891;28;20236;-69
2022/10/15 15:25:35;;;;;;;5.45;4.57;;;;;;;17.53;67.48;100496.97;6093379;28;21470;-70
2022/10/15 15:28:56;;;;;;;5.47;3.90;;;;;;;17.68;67.13;100493.34;6091278;28;20501;-70
2022/10/15 15:32:20;;;;;;;8.13;4.95;;;;;;;17.50;67.87;100500.06;6085489;28;20244;-70
2022/10/15 15:35:49;;;;;;;4.78;3.75;;;;;;;17.66;67.65;100511.78;6092374;28;20808;-70
2022/10/15 15:39:10;;;;;;;4.43;4.03;;;;;;;17.55;68.64;100516.69;6073607;28;20231;-68
2022/10/15 15:42:30;;;;;;;6.65;4.38;;;;;;;17.48;69.59;100518.44;6102166;28;20870;-68
2022/10/15 15:45:51;;;;;;;4.93;4.25;;;;;;;17.28;71.33;100527.38;6099903;28;20541;-68
2022/10/15 15:49:13;;;;;;;6.50;4.57;;;;;;;17.28;72.16;100530.13;6091546;28;20235;-68